createdAt,value
2019-01-31T00:01:18.180Z,22.00
2019-01-31T00:04:55.965Z,22.10
2019-01-31T00:08:15.329Z,22.10
2019-01-31T00:11:28.461Z,22.60
2019-01-31T00:15:01.227Z,22.70
2019-01-31T00:18:38.950Z,22.70
2019-01-31T00:21:57.648Z,23.20
2019-01-31T00:24:39.890Z,22.90
2019-01-31T00:28:06.158Z,22.90
2019-01-31T00:31:28.782Z,22.90
2019-01-31T00:34:59.335Z,22.60
2019-01-31T00:38:56.286Z,22.60
2019-01-31T00:42:15.255Z,22.70
2019-01-31T00:45:29.325Z,22.40
2019-01-31T00:48:56.537Z,22.60
2019-01-31T00:52:18.728Z,22.60
2019-01-31T00:56:05.409Z,22.50
2019-01-31T00:59:42.362Z,23.00
2019-01-31T01:03:17.526Z,22.30
2019-01-31T01:07:04.224Z,22.10
2019-01-31T01:10:11.391Z,22.20
2019-01-31T01:13:47.832Z,22.60
2019-01-31T01:17:20.458Z,22.40
2019-01-31T01:21:02.422Z,22.60
2019-01-31T01:24:00.577Z,22.60
2019-01-31T01:27:13.477Z,22.30
2019-01-31T01:30:26.522Z,22.50
2019-01-31T01:34:25.229Z,22.70
2019-01-31T01:37:44.780Z,23.20
2019-01-31T01:41:24.705Z,22.90
2019-01-31T01:44:57.766Z,22.40
2019-01-31T01:48:27.265Z,22.70
2019-01-31T01:51:58.976Z,22.50
2019-01-31T01:55:08.675Z,22.30
2019-01-31T01:58:35.596Z,22.10
2019-01-31T02:01:40.758Z,22.20
2019-01-31T02:04:31.667Z,22.00
2019-01-31T02:07:31.866Z,21.90
2019-01-31T02:11:15.333Z,22.10
2019-01-31T02:14:53.651Z,22.10
2019-01-31T02:18:00.812Z,21.90
2019-01-31T02:21:26.969Z,22.00
2019-01-31T02:24:36.582Z,22.40
2019-01-31T02:28:07.470Z,22.30
2019-01-31T02:31:29.575Z,22.20
2019-01-31T02:35:03.332Z,21.90
2019-01-31T02:38:13.226Z,22.20
2019-01-31T02:41:26.385Z,22.30
2019-01-31T02:44:44.794Z,22.40
2019-01-31T02:47:56.212Z,22.40
2019-01-31T02:51:32.743Z,22.50
2019-01-31T02:54:57.487Z,22.20
2019-01-31T02:58:24.953Z,22.30
2019-01-31T03:01:52.614Z,22.40
2019-01-31T03:04:59.201Z,22.60
2019-01-31T03:08:37.800Z,22.90
2019-01-31T03:11:39.007Z,22.90
2019-01-31T03:14:22.448Z,22.50
2019-01-31T03:17:45.776Z,22.60
2019-01-31T03:21:02.702Z,22.50
2019-01-31T03:24:33.427Z,22.30
2019-01-31T03:27:50.046Z,22.40
2019-01-31T03:31:10.272Z,22.20
2019-01-31T03:35:05.035Z,23.20
2019-01-31T03:38:24.988Z,22.90
2019-01-31T03:41:51.378Z,22.50
2019-01-31T03:44:59.361Z,22.20
2019-01-31T03:48:20.282Z,22.00
2019-01-31T03:51:48.790Z,22.50
2019-01-31T03:55:07.193Z,22.30
2019-01-31T03:58:29.076Z,22.40
2019-01-31T04:02:00.931Z,22.70
2019-01-31T04:04:48.460Z,22.70
2019-01-31T04:07:19.946Z,22.90
2019-01-31T04:09:51.406Z,22.90
2019-01-31T04:12:22.890Z,22.70
2019-01-31T04:14:54.371Z,22.70
2019-01-31T04:17:25.832Z,22.80
2019-01-31T04:19:57.280Z,22.70
2019-01-31T04:22:31.944Z,22.60
2019-01-31T04:25:03.360Z,22.40
2019-01-31T04:27:34.843Z,22.00
2019-01-31T04:30:08.566Z,21.90
2019-01-31T04:32:41.022Z,21.90
2019-01-31T04:35:12.504Z,21.90
2019-01-31T04:37:43.955Z,21.80
2019-01-31T04:40:15.385Z,21.60
2019-01-31T04:42:47.006Z,21.70
2019-01-31T04:45:18.569Z,21.60
2019-01-31T04:47:50.135Z,21.70
2019-01-31T04:50:21.625Z,21.70
2019-01-31T04:52:53.074Z,21.50
2019-01-31T04:55:24.568Z,21.30
2019-01-31T04:57:56.003Z,21.30
2019-01-31T05:00:27.763Z,21.20
2019-01-31T05:02:59.283Z,21.30
2019-01-31T05:05:30.738Z,21.20
2019-01-31T05:08:02.230Z,21.60
2019-01-31T05:10:42.688Z,21.20
2019-01-31T05:13:06.993Z,21.10
2019-01-31T05:15:38.764Z,21.30
2019-01-31T05:18:10.236Z,21.30
2019-01-31T05:20:41.691Z,21.30
2019-01-31T05:23:13.260Z,21.30
2019-01-31T05:25:44.706Z,21.30
2019-01-31T05:28:16.211Z,21.40
2019-01-31T05:30:48.072Z,21.40
2019-01-31T05:33:19.755Z,21.30
2019-01-31T05:35:51.229Z,21.20
2019-01-31T05:38:22.678Z,21.20
2019-01-31T05:40:55.538Z,21.40
2019-01-31T05:43:27.473Z,21.30
2019-01-31T05:45:58.966Z,21.10
2019-01-31T05:48:30.431Z,21.10
2019-01-31T05:51:01.932Z,21.00
2019-01-31T05:53:33.374Z,20.90
2019-01-31T05:56:04.928Z,20.70
2019-01-31T05:58:36.452Z,20.80
2019-01-31T06:01:08.249Z,21.00
2019-01-31T06:03:39.965Z,21.10
2019-01-31T06:06:11.434Z,21.10
2019-01-31T06:08:42.976Z,20.60
2019-01-31T06:11:14.425Z,21.10
2019-01-31T06:13:45.892Z,21.30
2019-01-31T06:16:17.594Z,21.30
2019-01-31T06:18:49.162Z,21.30
2019-01-31T06:21:20.582Z,21.30
2019-01-31T06:23:52.071Z,21.50
2019-01-31T06:26:23.539Z,21.50
2019-01-31T06:28:54.980Z,21.40
2019-01-31T06:31:26.461Z,21.20
2019-01-31T06:33:57.946Z,21.30
2019-01-31T06:36:29.503Z,21.20
2019-01-31T06:39:01.130Z,21.20
2019-01-31T06:41:34.175Z,21.20
2019-01-31T06:44:05.723Z,21.20
2019-01-31T06:46:37.370Z,21.20
2019-01-31T06:49:08.882Z,21.20
2019-01-31T06:51:40.354Z,21.30
2019-01-31T06:54:11.954Z,21.40
2019-01-31T06:56:45.574Z,21.40
2019-01-31T06:59:17.072Z,21.40
2019-01-31T07:01:48.865Z,21.40
2019-01-31T07:04:20.684Z,21.40
2019-01-31T07:06:52.178Z,21.60
2019-01-31T07:09:23.615Z,21.30
2019-01-31T07:11:55.154Z,21.20
2019-01-31T07:14:26.668Z,21.30
2019-01-31T07:16:58.407Z,21.40
2019-01-31T07:19:29.849Z,21.50
2019-01-31T07:22:01.385Z,21.50
2019-01-31T07:24:32.898Z,21.60
2019-01-31T07:27:04.370Z,21.70
2019-01-31T07:29:36.184Z,21.80
2019-01-31T07:32:07.971Z,21.80
2019-01-31T07:34:39.399Z,21.70
2019-01-31T07:37:10.839Z,21.80
2019-01-31T07:39:42.291Z,21.80
2019-01-31T07:42:13.791Z,21.70
2019-01-31T07:44:49.946Z,21.70
2019-01-31T07:47:21.672Z,21.90
2019-01-31T07:49:53.105Z,21.90
2019-01-31T07:52:24.547Z,22.00
2019-01-31T07:54:56.082Z,22.20
2019-01-31T07:57:27.615Z,22.10
2019-01-31T07:59:59.090Z,22.00
2019-01-31T08:02:30.638Z,21.90
2019-01-31T08:05:05.244Z,21.80
2019-01-31T08:07:36.684Z,21.80
2019-01-31T08:10:13.224Z,22.00
2019-01-31T08:12:44.708Z,21.90
2019-01-31T08:15:17.647Z,21.90
2019-01-31T08:17:49.433Z,21.80
2019-01-31T08:20:20.988Z,21.90
2019-01-31T08:22:52.437Z,21.90
2019-01-31T08:25:23.964Z,21.80
2019-01-31T08:27:55.599Z,21.80
2019-01-31T08:30:30.721Z,21.90
2019-01-31T08:33:02.579Z,21.80
2019-01-31T08:35:34.107Z,21.70
2019-01-31T08:38:05.584Z,21.80
2019-01-31T08:40:37.090Z,21.90
2019-01-31T08:43:08.583Z,21.70
2019-01-31T08:45:40.107Z,21.60
2019-01-31T08:48:11.913Z,21.50
2019-01-31T08:50:43.476Z,21.50
2019-01-31T08:53:15.041Z,21.40
2019-01-31T08:55:47.581Z,21.40
2019-01-31T08:58:19.420Z,21.50
2019-01-31T09:00:50.954Z,21.30
2019-01-31T09:03:22.777Z,21.40
2019-01-31T09:05:54.534Z,21.30
2019-01-31T09:08:26.335Z,21.10
2019-01-31T09:10:57.988Z,21.20
2019-01-31T09:13:31.027Z,21.20
2019-01-31T09:16:02.549Z,21.00
2019-01-31T09:18:34.018Z,21.20
2019-01-31T09:21:35.810Z,21.30
2019-01-31T09:25:26.339Z,21.30
2019-01-31T09:28:31.267Z,21.20
2019-01-31T09:31:52.142Z,21.10
2019-01-31T09:35:08.204Z,20.90
2019-01-31T09:38:57.832Z,20.80
2019-01-31T09:42:07.184Z,20.80
2019-01-31T09:45:23.939Z,20.80
2019-01-31T09:48:24.810Z,20.90
2019-01-31T09:51:51.963Z,21.00
2019-01-31T09:55:06.986Z,21.10
2019-01-31T09:58:23.958Z,21.10
2019-01-31T10:01:54.270Z,21.40
2019-01-31T10:05:22.108Z,21.20
2019-01-31T10:08:30.049Z,21.30
2019-01-31T10:11:46.419Z,21.30
2019-01-31T10:15:04.124Z,21.10
2019-01-31T10:18:42.046Z,21.30
2019-01-31T10:22:02.638Z,21.30
2019-01-31T10:25:08.290Z,22.00
2019-01-31T10:28:29.944Z,21.60
2019-01-31T10:31:55.590Z,21.40
2019-01-31T10:35:39.022Z,21.90
2019-01-31T10:39:12.838Z,21.70
2019-01-31T10:42:08.348Z,21.60
2019-01-31T10:45:08.289Z,21.60
2019-01-31T10:48:30.751Z,21.60
2019-01-31T10:51:44.720Z,21.30
2019-01-31T10:54:40.553Z,21.20
2019-01-31T10:58:12.564Z,21.20
2019-01-31T11:01:55.198Z,21.10
2019-01-31T11:05:08.687Z,20.90
2019-01-31T11:08:17.320Z,20.90
2019-01-31T11:11:09.993Z,20.90
2019-01-31T11:14:18.032Z,21.10
2019-01-31T11:17:43.633Z,21.10
2019-01-31T11:21:16.138Z,21.40
2019-01-31T11:24:15.235Z,21.20
2019-01-31T11:27:51.086Z,21.30
2019-01-31T11:30:41.759Z,21.20
2019-01-31T11:33:29.975Z,21.30
2019-01-31T11:36:58.323Z,21.50
2019-01-31T11:40:29.458Z,21.30
2019-01-31T11:43:33.793Z,21.20
2019-01-31T11:46:49.595Z,21.20
2019-01-31T11:50:05.435Z,21.40
2019-01-31T11:53:13.888Z,21.10
2019-01-31T11:56:41.669Z,21.00
2019-01-31T11:59:13.336Z,20.80
2019-01-31T12:01:44.850Z,21.00
2019-01-31T12:04:20.031Z,21.20
2019-01-31T12:06:51.500Z,21.40
2019-01-31T12:09:23.651Z,21.40
2019-01-31T12:11:55.349Z,21.30
2019-01-31T12:14:27.109Z,21.20
2019-01-31T12:16:58.546Z,21.20
2019-01-31T12:19:30.333Z,21.30
2019-01-31T12:22:05.736Z,21.00
2019-01-31T12:24:37.290Z,21.40
2019-01-31T12:27:08.746Z,21.50
2019-01-31T12:29:40.414Z,22.20
2019-01-31T12:32:12.049Z,22.50
2019-01-31T12:34:43.734Z,22.30
2019-01-31T12:37:16.303Z,22.00
2019-01-31T12:39:47.815Z,21.70
2019-01-31T12:42:19.276Z,21.90
2019-01-31T12:44:51.006Z,22.00
2019-01-31T12:47:22.466Z,22.20
2019-01-31T12:49:53.972Z,22.20
2019-01-31T12:52:25.450Z,22.00
2019-01-31T12:54:57.014Z,21.80
2019-01-31T12:57:28.468Z,21.60
2019-01-31T13:00:00.248Z,21.60
2019-01-31T13:02:31.954Z,21.50
2019-01-31T13:05:03.457Z,21.60
2019-01-31T13:07:34.954Z,21.60
2019-01-31T13:10:06.949Z,21.60
2019-01-31T13:12:48.323Z,21.80
2019-01-31T13:15:12.023Z,21.70
2019-01-31T13:17:43.535Z,21.60
2019-01-31T13:20:23.934Z,21.40
2019-01-31T13:22:57.820Z,21.50
2019-01-31T13:25:29.900Z,21.60
2019-01-31T13:28:01.359Z,21.50
2019-01-31T13:30:33.288Z,21.50
2019-01-31T13:33:04.776Z,21.40
2019-01-31T13:35:36.295Z,21.50
2019-01-31T13:38:07.882Z,21.50
2019-01-31T13:40:40.437Z,21.70
2019-01-31T13:43:11.912Z,21.90
2019-01-31T13:45:43.692Z,21.80
2019-01-31T13:48:17.054Z,21.70
2019-01-31T13:50:48.552Z,21.70
2019-01-31T13:53:20.054Z,21.60
2019-01-31T13:55:51.481Z,21.50
2019-01-31T13:58:22.961Z,21.50
2019-01-31T14:00:54.692Z,21.50
2019-01-31T14:03:26.322Z,21.30
2019-01-31T14:05:57.754Z,21.30
2019-01-31T14:08:29.284Z,21.10
2019-01-31T14:11:00.734Z,21.20
2019-01-31T14:13:32.382Z,21.40
2019-01-31T14:16:03.966Z,21.40
2019-01-31T14:18:35.678Z,21.30
2019-01-31T14:21:07.206Z,21.30
2019-01-31T14:23:38.644Z,21.30
2019-01-31T14:26:10.140Z,21.40
2019-01-31T14:28:41.586Z,21.50
2019-01-31T14:31:13.353Z,21.50
2019-01-31T14:33:45.678Z,21.30
2019-01-31T14:36:17.221Z,21.20
2019-01-31T14:38:48.733Z,21.30
2019-01-31T14:41:20.216Z,21.20
2019-01-31T14:43:51.702Z,21.10
2019-01-31T14:46:23.482Z,21.30
2019-01-31T14:48:54.940Z,21.30
2019-01-31T14:51:26.453Z,21.30
2019-01-31T14:53:57.883Z,21.40
2019-01-31T14:56:29.407Z,21.40
2019-01-31T14:59:00.869Z,21.30
2019-01-31T15:01:32.746Z,21.10
2019-01-31T15:04:04.216Z,21.00
2019-01-31T15:06:35.688Z,21.10
2019-01-31T15:09:09.631Z,21.20
2019-01-31T15:11:41.534Z,21.30
2019-01-31T15:14:13.077Z,21.30
2019-01-31T15:16:44.911Z,21.30
2019-01-31T15:19:16.372Z,21.30
2019-01-31T15:21:50.420Z,21.30
2019-01-31T15:24:21.965Z,21.40
2019-01-31T15:26:53.825Z,21.50
2019-01-31T15:29:26.657Z,21.40
2019-01-31T15:31:58.452Z,21.40
2019-01-31T15:34:29.887Z,21.40
2019-01-31T15:37:02.184Z,21.40
2019-01-31T15:39:33.981Z,21.30
2019-01-31T15:42:05.468Z,21.40
2019-01-31T15:44:43.325Z,21.40
2019-01-31T15:47:10.604Z,21.50
2019-01-31T15:49:44.895Z,21.10
2019-01-31T15:52:16.411Z,21.00
2019-01-31T15:54:50.320Z,20.90
2019-01-31T15:57:21.780Z,20.90
2019-01-31T15:59:53.298Z,20.90
2019-01-31T16:02:25.135Z,20.80
2019-01-31T16:04:56.793Z,20.90
2019-01-31T16:07:30.907Z,20.90
2019-01-31T16:10:03.741Z,20.90
2019-01-31T16:12:35.364Z,20.90
2019-01-31T16:15:10.819Z,20.80
2019-01-31T16:17:42.459Z,20.80
2019-01-31T16:20:14.417Z,20.80
2019-01-31T16:22:46.140Z,20.80
2019-01-31T16:25:17.673Z,20.80
2019-01-31T16:27:49.198Z,20.80
2019-01-31T16:30:21.240Z,20.80
2019-01-31T16:32:53.167Z,20.60
2019-01-31T16:35:24.682Z,20.70
2019-01-31T16:37:56.259Z,20.60
2019-01-31T16:40:28.019Z,20.60
2019-01-31T16:42:59.526Z,20.60
2019-01-31T16:45:34.112Z,20.70
2019-01-31T16:48:06.898Z,20.60
2019-01-31T16:50:38.596Z,20.60
2019-01-31T16:53:10.891Z,20.70
2019-01-31T16:55:42.403Z,20.70
2019-01-31T16:58:14.070Z,20.60
2019-01-31T17:00:45.578Z,20.60
2019-01-31T17:03:17.330Z,20.60
2019-01-31T17:05:48.792Z,20.70
2019-01-31T17:08:20.378Z,20.70
2019-01-31T17:10:51.922Z,20.70
2019-01-31T17:13:23.399Z,20.70
2019-01-31T17:15:55.045Z,20.70
2019-01-31T17:18:26.708Z,20.70
2019-01-31T17:20:58.324Z,20.60
2019-01-31T17:23:29.810Z,20.80
2019-01-31T17:26:01.462Z,20.70
2019-01-31T17:28:33.008Z,20.60
2019-01-31T17:31:04.548Z,20.40
2019-01-31T17:33:36.038Z,20.50
2019-01-31T17:36:07.568Z,20.50
2019-01-31T17:38:39.052Z,20.60
2019-01-31T17:41:10.549Z,20.60
2019-01-31T17:43:42.059Z,20.80
2019-01-31T17:46:13.682Z,21.10
2019-01-31T17:48:45.417Z,21.30
2019-01-31T17:51:18.681Z,21.50
2019-01-31T17:53:50.353Z,21.50
2019-01-31T17:56:21.827Z,21.70
2019-01-31T17:58:53.572Z,21.70
2019-01-31T18:01:25.235Z,21.70
2019-01-31T18:03:57.141Z,21.70
2019-01-31T18:06:28.806Z,21.60
2019-01-31T18:09:00.304Z,21.80
2019-01-31T18:11:32.420Z,21.70
2019-01-31T18:14:04.050Z,21.80
2019-01-31T18:16:35.653Z,21.70
2019-01-31T18:19:07.651Z,21.60
2019-01-31T18:21:39.382Z,21.70
2019-01-31T18:24:10.908Z,21.70
2019-01-31T18:26:42.772Z,21.70
2019-01-31T18:29:14.460Z,21.70
2019-01-31T18:31:46.046Z,21.60
2019-01-31T18:34:17.916Z,21.50
2019-01-31T18:36:49.686Z,21.70
2019-01-31T18:39:22.462Z,21.90
2019-01-31T18:41:54.082Z,21.80
2019-01-31T18:44:25.658Z,21.80
2019-01-31T18:46:57.328Z,21.90
2019-01-31T18:49:29.384Z,21.90
2019-01-31T18:52:01.242Z,22.00
2019-01-31T18:54:32.916Z,22.10
2019-01-31T18:57:05.818Z,22.00
2019-01-31T18:59:37.349Z,22.10
2019-01-31T19:02:08.960Z,22.10
2019-01-31T19:04:41.188Z,22.10
2019-01-31T19:07:13.867Z,22.10
2019-01-31T19:09:45.395Z,22.20
2019-01-31T19:12:16.915Z,21.60
2019-01-31T19:14:48.528Z,22.10
2019-01-31T19:17:20.148Z,22.20
2019-01-31T19:19:51.873Z,22.30
2019-01-31T19:22:23.470Z,22.20
2019-01-31T19:24:55.238Z,22.20
2019-01-31T19:27:27.056Z,22.10
2019-01-31T19:29:58.711Z,22.20
2019-01-31T19:32:30.424Z,22.20
2019-01-31T19:35:02.384Z,22.10
2019-01-31T19:37:35.323Z,22.20
2019-01-31T19:40:07.958Z,22.20
2019-01-31T19:42:39.618Z,22.20
2019-01-31T19:45:18.883Z,22.30
2019-01-31T19:47:50.593Z,22.20
2019-01-31T19:50:22.343Z,22.20
2019-01-31T19:52:54.135Z,22.00
2019-01-31T19:55:27.433Z,22.00
2019-01-31T19:57:59.075Z,22.00
2019-01-31T20:00:30.629Z,22.00
2019-01-31T20:03:02.231Z,22.00
2019-01-31T20:05:34.430Z,22.00
2019-01-31T20:08:08.005Z,22.10
2019-01-31T20:10:42.498Z,22.00
2019-01-31T20:13:15.509Z,22.00
2019-01-31T20:15:47.039Z,21.80
2019-01-31T20:18:18.847Z,22.00
2019-01-31T20:20:50.907Z,22.00
2019-01-31T20:23:22.695Z,22.10
2019-01-31T20:25:54.230Z,22.00
2019-01-31T20:28:25.973Z,21.80
2019-01-31T20:30:57.560Z,21.90
2019-01-31T20:33:29.156Z,22.00
2019-01-31T20:36:00.977Z,22.10
2019-01-31T20:38:32.572Z,22.00
2019-01-31T20:41:04.158Z,22.80
2019-01-31T20:43:36.139Z,23.20
2019-01-31T20:46:07.714Z,23.10
2019-01-31T20:48:39.312Z,22.50
2019-01-31T20:51:12.726Z,22.50
2019-01-31T20:53:44.662Z,22.30
2019-01-31T20:56:16.208Z,22.20
2019-01-31T20:58:47.848Z,22.30
2019-01-31T21:01:19.414Z,22.50
2019-01-31T21:03:51.278Z,22.20
2019-01-31T21:06:23.693Z,22.20
2019-01-31T21:08:55.297Z,22.40
2019-01-31T21:11:26.830Z,23.40
2019-01-31T21:13:58.425Z,23.10
2019-01-31T21:16:29.992Z,22.60
2019-01-31T21:19:01.590Z,22.30
2019-01-31T21:21:33.415Z,22.20
2019-01-31T21:24:05.103Z,22.10
2019-01-31T21:26:36.656Z,22.10
2019-01-31T21:29:08.209Z,22.20
2019-01-31T21:31:39.807Z,22.60
2019-01-31T21:34:11.310Z,22.70
2019-01-31T21:36:43.095Z,22.70
2019-01-31T21:39:17.236Z,23.00
2019-01-31T21:41:49.975Z,22.30
2019-01-31T21:44:21.588Z,21.90
2019-01-31T21:47:02.762Z,21.80
2019-01-31T21:49:26.388Z,21.60
2019-01-31T21:51:57.940Z,21.50
2019-01-31T21:54:29.492Z,21.50
2019-01-31T21:57:00.936Z,22.00
2019-01-31T21:59:32.443Z,22.10
2019-01-31T22:02:03.885Z,22.00
2019-01-31T22:04:35.345Z,21.80
2019-01-31T22:07:07.063Z,21.40
2019-01-31T22:09:38.603Z,21.70
2019-01-31T22:12:10.072Z,22.20
2019-01-31T22:14:41.547Z,22.50
2019-01-31T22:17:14.710Z,22.30
2019-01-31T22:19:46.347Z,21.90
2019-01-31T22:22:17.803Z,21.80
2019-01-31T22:24:49.299Z,21.70
2019-01-31T22:27:20.803Z,21.30
2019-01-31T22:29:52.345Z,20.90
2019-01-31T22:32:23.802Z,21.50
2019-01-31T22:34:55.337Z,21.60
2019-01-31T22:37:27.184Z,21.60
2019-01-31T22:39:58.702Z,21.60
2019-01-31T22:42:30.164Z,21.50
2019-01-31T22:45:01.729Z,21.50
2019-01-31T22:47:34.078Z,21.30
2019-01-31T22:50:07.120Z,22.00
2019-01-31T22:52:38.838Z,22.90
2019-01-31T22:55:11.946Z,22.10
2019-01-31T22:57:43.762Z,22.40
2019-01-31T23:01:09.091Z,22.20
2019-01-31T23:03:41.287Z,21.80
2019-01-31T23:06:15.658Z,21.60
2019-01-31T23:08:47.178Z,21.50
2019-01-31T23:11:18.828Z,21.40
2019-01-31T23:13:50.391Z,21.50
2019-01-31T23:16:22.124Z,21.50
2019-01-31T23:18:53.644Z,21.40
2019-01-31T23:21:25.382Z,21.70
2019-01-31T23:23:56.896Z,21.50
2019-01-31T23:26:28.439Z,21.30
2019-01-31T23:28:59.998Z,21.30
2019-01-31T23:31:31.534Z,21.20
2019-01-31T23:34:03.197Z,21.30
2019-01-31T23:36:34.707Z,21.30
2019-01-31T23:39:11.010Z,21.20
2019-01-31T23:41:42.698Z,21.30
2019-01-31T23:44:14.132Z,21.20
2019-01-31T23:46:45.598Z,21.00
2019-01-31T23:49:17.041Z,21.00
2019-01-31T23:51:48.488Z,21.00
2019-01-31T23:54:20.153Z,20.90
2019-01-31T23:56:51.625Z,20.80
2019-01-31T23:59:23.154Z,21.10
